sensor_id;sensor_type;location;lat;lon;timestamp;temperature;humidity
28010;DHT22;15334;49.494;8.410;2023-09-30T00:01:28;18.00;99.90
28010;DHT22;15334;49.494;8.410;2023-09-30T00:03:56;18.00;99.90
28010;DHT22;15334;49.494;8.410;2023-09-30T00:06:25;18.00;99.90
28010;DHT22;15334;49.494;8.410;2023-09-30T00:08:53;18.00;99.90
28010;DHT22;15334;49.494;8.410;2023-09-30T00:11:21;18.10;99.90
28010;DHT22;15334;49.494;8.410;2023-09-30T00:13:50;18.10;99.90
28010;DHT22;15334;49.494;8.410;2023-09-30T00:16:18;18.10;99.90
28010;DHT22;15334;49.494;8.410;2023-09-30T00:18:46;18.10;99.90
28010;DHT22;15334;49.494;8.410;2023-09-30T00:21:14;18.10;99.90
28010;DHT22;15334;49.494;8.410;2023-09-30T00:23:42;18.10;99.90
28010;DHT22;15334;49.494;8.410;2023-09-30T00:26:10;18.00;99.90
28010;DHT22;15334;49.494;8.410;2023-09-30T00:28:38;18.00;99.90
28010;DHT22;15334;49.494;8.410;2023-09-30T00:31:08;17.90;99.90
28010;DHT22;15334;49.494;8.410;2023-09-30T00:33:37;17.90;99.90
28010;DHT22;15334;49.494;8.410;2023-09-30T00:36:07;17.80;99.90
28010;DHT22;15334;49.494;8.410;2023-09-30T00:38:35;17.90;99.90
28010;DHT22;15334;49.494;8.410;2023-09-30T00:41:03;17.80;99.90
28010;DHT22;15334;49.494;8.410;2023-09-30T00:43:31;17.80;99.90
28010;DHT22;15334;49.494;8.410;2023-09-30T00:46:04;17.80;99.90
28010;DHT22;15334;49.494;8.410;2023-09-30T00:48:34;17.80;99.90
28010;DHT22;15334;49.494;8.410;2023-09-30T00:51:03;17.80;99.90
28010;DHT22;15334;49.494;8.410;2023-09-30T00:53:31;17.80;99.90
28010;DHT22;15334;49.494;8.410;2023-09-30T00:56:00;17.80;99.90
28010;DHT22;15334;49.494;8.410;2023-09-30T00:58:29;17.70;99.90
28010;DHT22;15334;49.494;8.410;2023-09-30T01:00:58;17.80;99.90
28010;DHT22;15334;49.494;8.410;2023-09-30T01:03:27;17.80;99.90
28010;DHT22;15334;49.494;8.410;2023-09-30T01:05:57;17.80;99.90
28010;DHT22;15334;49.494;8.410;2023-09-30T01:08:26;17.80;99.90
28010;DHT22;15334;49.494;8.410;2023-09-30T01:10:55;17.70;99.90
28010;DHT22;15334;49.494;8.410;2023-09-30T01:13:23;17.80;99.90
28010;DHT22;15334;49.494;8.410;2023-09-30T01:16:02;17.80;99.90
28010;DHT22;15334;49.494;8.410;2023-09-30T01:18:30;17.70;99.90
28010;DHT22;15334;49.494;8.410;2023-09-30T01:21:02;17.70;99.90
28010;DHT22;15334;49.494;8.410;2023-09-30T01:23:33;17.70;99.90
28010;DHT22;15334;49.494;8.410;2023-09-30T01:26:02;17.70;99.90
28010;DHT22;15334;49.494;8.410;2023-09-30T01:28:32;17.60;99.90
28010;DHT22;15334;49.494;8.410;2023-09-30T01:31:00;17.60;99.90
28010;DHT22;15334;49.494;8.410;2023-09-30T01:33:28;17.60;99.90
28010;DHT22;15334;49.494;8.410;2023-09-30T01:35:57;17.40;99.90
28010;DHT22;15334;49.494;8.410;2023-09-30T01:38:25;17.40;99.90
28010;DHT22;15334;49.494;8.410;2023-09-30T01:40:54;17.40;99.90
28010;DHT22;15334;49.494;8.410;2023-09-30T01:43:27;17.40;99.90
28010;DHT22;15334;49.494;8.410;2023-09-30T01:45:55;17.40;99.90
28010;DHT22;15334;49.494;8.410;2023-09-30T01:48:25;17.30;99.90
28010;DHT22;15334;49.494;8.410;2023-09-30T01:50:53;17.30;99.90
28010;DHT22;15334;49.494;8.410;2023-09-30T01:53:21;17.40;99.90
28010;DHT22;15334;49.494;8.410;2023-09-30T01:55:49;17.30;99.90
28010;DHT22;15334;49.494;8.410;2023-09-30T01:58:18;17.30;99.90
28010;DHT22;15334;49.494;8.410;2023-09-30T02:00:46;17.20;99.90
28010;DHT22;15334;49.494;8.410;2023-09-30T02:03:14;17.20;99.90
28010;DHT22;15334;49.494;8.410;2023-09-30T02:05:43;17.20;99.90
28010;DHT22;15334;49.494;8.410;2023-09-30T02:08:11;17.20;99.90
28010;DHT22;15334;49.494;8.410;2023-09-30T02:10:40;17.30;99.90
28010;DHT22;15334;49.494;8.410;2023-09-30T02:13:08;17.20;99.90
28010;DHT22;15334;49.494;8.410;2023-09-30T02:15:41;17.30;99.90
28010;DHT22;15334;49.494;8.410;2023-09-30T02:18:09;17.30;99.90
28010;DHT22;15334;49.494;8.410;2023-09-30T02:20:37;17.30;99.90
28010;DHT22;15334;49.494;8.410;2023-09-30T02:23:06;17.30;99.90
28010;DHT22;15334;49.494;8.410;2023-09-30T02:25:34;17.30;99.90
28010;DHT22;15334;49.494;8.410;2023-09-30T02:28:02;17.40;99.90
28010;DHT22;15334;49.494;8.410;2023-09-30T02:30:31;17.50;99.90
28010;DHT22;15334;49.494;8.410;2023-09-30T02:33:00;17.40;99.90
28010;DHT22;15334;49.494;8.410;2023-09-30T02:35:29;17.50;99.90
28010;DHT22;15334;49.494;8.410;2023-09-30T02:37:57;17.50;99.90
28010;DHT22;15334;49.494;8.410;2023-09-30T02:40:25;17.40;99.90
28010;DHT22;15334;49.494;8.410;2023-09-30T02:42:53;17.40;99.90
28010;DHT22;15334;49.494;8.410;2023-09-30T02:45:21;17.30;99.90
28010;DHT22;15334;49.494;8.410;2023-09-30T02:47:49;17.30;99.90
28010;DHT22;15334;49.494;8.410;2023-09-30T02:50:19;17.20;99.90
28010;DHT22;15334;49.494;8.410;2023-09-30T02:52:48;17.10;99.90
28010;DHT22;15334;49.494;8.410;2023-09-30T02:55:16;17.10;99.90
28010;DHT22;15334;49.494;8.410;2023-09-30T02:57:44;17.00;99.90
28010;DHT22;15334;49.494;8.410;2023-09-30T03:00:14;16.90;99.90
28010;DHT22;15334;49.494;8.410;2023-09-30T03:02:47;16.90;99.90
28010;DHT22;15334;49.494;8.410;2023-09-30T03:05:15;16.80;99.90
28010;DHT22;15334;49.494;8.410;2023-09-30T03:07:47;16.80;99.90
28010;DHT22;15334;49.494;8.410;2023-09-30T03:10:17;16.70;99.90
28010;DHT22;15334;49.494;8.410;2023-09-30T03:12:47;16.70;99.90
28010;DHT22;15334;49.494;8.410;2023-09-30T03:15:16;16.70;99.90
28010;DHT22;15334;49.494;8.410;2023-09-30T03:17:44;16.70;99.90
28010;DHT22;15334;49.494;8.410;2023-09-30T03:20:14;16.70;99.90
28010;DHT22;15334;49.494;8.410;2023-09-30T03:22:48;16.70;99.90
28010;DHT22;15334;49.494;8.410;2023-09-30T03:25:17;16.70;99.90
28010;DHT22;15334;49.494;8.410;2023-09-30T03:27:45;16.80;99.90
28010;DHT22;15334;49.494;8.410;2023-09-30T03:30:14;16.70;99.90
28010;DHT22;15334;49.494;8.410;2023-09-30T03:32:43;16.80;99.90
28010;DHT22;15334;49.494;8.410;2023-09-30T03:35:11;16.80;99.90
28010;DHT22;15334;49.494;8.410;2023-09-30T03:37:44;16.80;99.90
28010;DHT22;15334;49.494;8.410;2023-09-30T03:40:14;16.70;99.90
28010;DHT22;15334;49.494;8.410;2023-09-30T03:42:47;16.70;99.90
28010;DHT22;15334;49.494;8.410;2023-09-30T03:45:17;16.60;99.90
28010;DHT22;15334;49.494;8.410;2023-09-30T03:47:46;16.50;99.90
28010;DHT22;15334;49.494;8.410;2023-09-30T03:50:16;16.50;99.90
28010;DHT22;15334;49.494;8.410;2023-09-30T03:52:44;16.50;99.90
28010;DHT22;15334;49.494;8.410;2023-09-30T03:55:16;16.40;99.90
28010;DHT22;15334;49.494;8.410;2023-09-30T03:57:47;16.40;99.90
28010;DHT22;15334;49.494;8.410;2023-09-30T04:00:16;16.40;99.90
28010;DHT22;15334;49.494;8.410;2023-09-30T04:02:47;16.40;99.90
28010;DHT22;15334;49.494;8.410;2023-09-30T04:05:21;16.30;99.90
28010;DHT22;15334;49.494;8.410;2023-09-30T04:07:55;16.20;99.90
28010;DHT22;15334;49.494;8.410;2023-09-30T04:10:25;16.20;99.90
28010;DHT22;15334;49.494;8.410;2023-09-30T04:12:54;16.10;99.90
28010;DHT22;15334;49.494;8.410;2023-09-30T04:15:22;16.10;99.90
28010;DHT22;15334;49.494;8.410;2023-09-30T04:17:50;16.00;99.90
28010;DHT22;15334;49.494;8.410;2023-09-30T04:20:19;16.10;99.90
28010;DHT22;15334;49.494;8.410;2023-09-30T04:22:50;16.00;99.90
28010;DHT22;15334;49.494;8.410;2023-09-30T04:25:25;16.00;99.90
28010;DHT22;15334;49.494;8.410;2023-09-30T04:27:53;16.00;99.90
28010;DHT22;15334;49.494;8.410;2023-09-30T04:30:21;16.00;99.90
28010;DHT22;15334;49.494;8.410;2023-09-30T04:32:50;16.00;99.90
28010;DHT22;15334;49.494;8.410;2023-09-30T04:35:18;16.00;99.90
28010;DHT22;15334;49.494;8.410;2023-09-30T04:37:46;16.00;99.90
28010;DHT22;15334;49.494;8.410;2023-09-30T04:40:14;16.00;99.90
28010;DHT22;15334;49.494;8.410;2023-09-30T04:42:48;16.00;99.90
28010;DHT22;15334;49.494;8.410;2023-09-30T04:45:17;15.90;99.90
28010;DHT22;15334;49.494;8.410;2023-09-30T04:47:47;15.80;99.90
28010;DHT22;15334;49.494;8.410;2023-09-30T04:50:16;15.80;99.90
28010;DHT22;15334;49.494;8.410;2023-09-30T04:52:46;15.80;99.90
28010;DHT22;15334;49.494;8.410;2023-09-30T04:55:14;15.90;99.90
28010;DHT22;15334;49.494;8.410;2023-09-30T04:57:44;15.90;99.90
28010;DHT22;15334;49.494;8.410;2023-09-30T05:00:15;15.90;99.90
28010;DHT22;15334;49.494;8.410;2023-09-30T05:02:45;15.90;99.90
28010;DHT22;15334;49.494;8.410;2023-09-30T05:05:13;15.90;99.90
28010;DHT22;15334;49.494;8.410;2023-09-30T05:07:45;15.90;99.90
28010;DHT22;15334;49.494;8.410;2023-09-30T05:10:14;15.90;99.90
28010;DHT22;15334;49.494;8.410;2023-09-30T05:12:44;15.90;99.90
28010;DHT22;15334;49.494;8.410;2023-09-30T05:15:16;15.90;99.90
28010;DHT22;15334;49.494;8.410;2023-09-30T05:17:46;15.80;99.90
28010;DHT22;15334;49.494;8.410;2023-09-30T05:20:15;15.80;99.90
28010;DHT22;15334;49.494;8.410;2023-09-30T05:22:45;15.80;99.90
28010;DHT22;15334;49.494;8.410;2023-09-30T05:25:14;15.70;99.90
28010;DHT22;15334;49.494;8.410;2023-09-30T05:27:44;15.70;99.90
28010;DHT22;15334;49.494;8.410;2023-09-30T05:30:16;15.70;99.90
28010;DHT22;15334;49.494;8.410;2023-09-30T05:32:47;15.70;99.90
28010;DHT22;15334;49.494;8.410;2023-09-30T05:35:15;15.70;99.90
28010;DHT22;15334;49.494;8.410;2023-09-30T05:37:44;15.70;99.90
28010;DHT22;15334;49.494;8.410;2023-09-30T05:40:13;15.70;99.90
28010;DHT22;15334;49.494;8.410;2023-09-30T05:42:49;15.60;99.90
28010;DHT22;15334;49.494;8.410;2023-09-30T05:45:19;15.60;99.90
28010;DHT22;15334;49.494;8.410;2023-09-30T05:47:47;15.50;99.90
28010;DHT22;15334;49.494;8.410;2023-09-30T05:50:19;15.50;99.90
28010;DHT22;15334;49.494;8.410;2023-09-30T05:52:51;15.40;99.90
28010;DHT22;15334;49.494;8.410;2023-09-30T05:55:20;15.40;99.90
28010;DHT22;15334;49.494;8.410;2023-09-30T05:57:49;15.40;99.90
28010;DHT22;15334;49.494;8.410;2023-09-30T06:00:19;15.40;99.90
28010;DHT22;15334;49.494;8.410;2023-09-30T06:02:51;15.40;99.90
28010;DHT22;15334;49.494;8.410;2023-09-30T06:05:19;15.50;99.90
28010;DHT22;15334;49.494;8.410;2023-09-30T06:07:50;15.50;99.90
28010;DHT22;15334;49.494;8.410;2023-09-30T06:10:18;15.50;99.90
28010;DHT22;15334;49.494;8.410;2023-09-30T06:12:46;15.60;99.90
28010;DHT22;15334;49.494;8.410;2023-09-30T06:15:15;15.60;99.90
28010;DHT22;15334;49.494;8.410;2023-09-30T06:17:50;15.60;99.90
28010;DHT22;15334;49.494;8.410;2023-09-30T06:20:18;15.60;99.90
28010;DHT22;15334;49.494;8.410;2023-09-30T06:22:49;15.60;99.90
28010;DHT22;15334;49.494;8.410;2023-09-30T06:25:17;15.70;99.90
28010;DHT22;15334;49.494;8.410;2023-09-30T06:27:46;15.70;99.90
28010;DHT22;15334;49.494;8.410;2023-09-30T06:30:14;15.80;99.90
28010;DHT22;15334;49.494;8.410;2023-09-30T06:32:43;15.80;99.90
28010;DHT22;15334;49.494;8.410;2023-09-30T06:35:14;15.90;99.90
28010;DHT22;15334;49.494;8.410;2023-09-30T06:37:42;15.90;99.90
28010;DHT22;15334;49.494;8.410;2023-09-30T06:40:15;15.90;99.90
28010;DHT22;15334;49.494;8.410;2023-09-30T06:42:44;15.90;99.90
28010;DHT22;15334;49.494;8.410;2023-09-30T06:45:12;15.90;99.90
28010;DHT22;15334;49.494;8.410;2023-09-30T06:47:40;15.80;99.90
28010;DHT22;15334;49.494;8.410;2023-09-30T06:50:10;15.70;99.90
28010;DHT22;15334;49.494;8.410;2023-09-30T06:52:41;15.70;99.90
28010;DHT22;15334;49.494;8.410;2023-09-30T06:55:12;15.70;99.90
28010;DHT22;15334;49.494;8.410;2023-09-30T06:57:41;15.70;99.90
28010;DHT22;15334;49.494;8.410;2023-09-30T07:00:11;15.70;99.90
28010;DHT22;15334;49.494;8.410;2023-09-30T07:02:40;15.70;99.90
28010;DHT22;15334;49.494;8.410;2023-09-30T07:05:09;15.70;99.90
28010;DHT22;15334;49.494;8.410;2023-09-30T07:07:39;15.80;99.90
28010;DHT22;15334;49.494;8.410;2023-09-30T07:10:10;15.80;99.90
28010;DHT22;15334;49.494;8.410;2023-09-30T07:12:39;15.80;99.90
28010;DHT22;15334;49.494;8.410;2023-09-30T07:15:08;15.80;99.90
28010;DHT22;15334;49.494;8.410;2023-09-30T07:17:36;15.90;99.90
28010;DHT22;15334;49.494;8.410;2023-09-30T07:20:07;16.00;99.90
28010;DHT22;15334;49.494;8.410;2023-09-30T07:22:37;16.00;99.90
28010;DHT22;15334;49.494;8.410;2023-09-30T07:25:10;16.10;99.90
28010;DHT22;15334;49.494;8.410;2023-09-30T07:27:38;16.10;99.90
28010;DHT22;15334;49.494;8.410;2023-09-30T07:30:07;16.20;99.90
28010;DHT22;15334;49.494;8.410;2023-09-30T07:32:36;16.20;99.90
28010;DHT22;15334;49.494;8.410;2023-09-30T07:35:05;16.20;99.90
28010;DHT22;15334;49.494;8.410;2023-09-30T07:37:33;16.30;99.90
28010;DHT22;15334;49.494;8.410;2023-09-30T07:40:01;16.40;99.90
28010;DHT22;15334;49.494;8.410;2023-09-30T07:42:31;16.40;99.90
28010;DHT22;15334;49.494;8.410;2023-09-30T07:45:00;16.50;99.90
28010;DHT22;15334;49.494;8.410;2023-09-30T07:47:30;16.60;99.90
28010;DHT22;15334;49.494;8.410;2023-09-30T07:50:00;16.70;99.90
28010;DHT22;15334;49.494;8.410;2023-09-30T07:52:29;16.70;99.90
28010;DHT22;15334;49.494;8.410;2023-09-30T07:54:57;16.90;99.90
28010;DHT22;15334;49.494;8.410;2023-09-30T07:57:25;16.80;99.90
28010;DHT22;15334;49.494;8.410;2023-09-30T07:59:55;16.80;99.90
28010;DHT22;15334;49.494;8.410;2023-09-30T08:02:23;16.90;99.90
28010;DHT22;15334;49.494;8.410;2023-09-30T08:04:54;17.00;99.90
28010;DHT22;15334;49.494;8.410;2023-09-30T08:07:22;17.10;99.90
28010;DHT22;15334;49.494;8.410;2023-09-30T08:09:50;17.10;99.90
28010;DHT22;15334;49.494;8.410;2023-09-30T08:12:18;17.20;99.90
28010;DHT22;15334;49.494;8.410;2023-09-30T08:14:46;17.20;99.90
28010;DHT22;15334;49.494;8.410;2023-09-30T08:17:17;17.20;99.90
28010;DHT22;15334;49.494;8.410;2023-09-30T08:19:45;17.30;99.90
28010;DHT22;15334;49.494;8.410;2023-09-30T08:22:14;17.30;99.90
28010;DHT22;15334;49.494;8.410;2023-09-30T08:24:42;17.40;99.90
28010;DHT22;15334;49.494;8.410;2023-09-30T08:27:11;17.40;99.90
28010;DHT22;15334;49.494;8.410;2023-09-30T08:29:39;17.50;99.90
28010;DHT22;15334;49.494;8.410;2023-09-30T08:32:07;17.40;99.90
28010;DHT22;15334;49.494;8.410;2023-09-30T08:34:37;17.40;99.90
28010;DHT22;15334;49.494;8.410;2023-09-30T08:37:06;17.50;99.90
28010;DHT22;15334;49.494;8.410;2023-09-30T08:39:38;17.60;99.90
28010;DHT22;15334;49.494;8.410;2023-09-30T08:42:09;17.60;99.90
28010;DHT22;15334;49.494;8.410;2023-09-30T08:44:38;17.80;99.90
28010;DHT22;15334;49.494;8.410;2023-09-30T08:47:07;17.80;99.90
28010;DHT22;15334;49.494;8.410;2023-09-30T08:49:38;17.90;99.90
28010;DHT22;15334;49.494;8.410;2023-09-30T08:52:09;18.00;99.90
28010;DHT22;15334;49.494;8.410;2023-09-30T08:54:37;18.10;99.90
28010;DHT22;15334;49.494;8.410;2023-09-30T08:57:08;18.10;99.90
28010;DHT22;15334;49.494;8.410;2023-09-30T08:59:38;18.20;99.90
28010;DHT22;15334;49.494;8.410;2023-09-30T09:02:09;18.40;99.90
28010;DHT22;15334;49.494;8.410;2023-09-30T09:04:39;18.40;99.90
28010;DHT22;15334;49.494;8.410;2023-09-30T09:07:07;18.50;99.90
28010;DHT22;15334;49.494;8.410;2023-09-30T09:09:35;18.50;99.90
28010;DHT22;15334;49.494;8.410;2023-09-30T09:12:04;18.70;99.90
28010;DHT22;15334;49.494;8.410;2023-09-30T09:14:40;18.80;99.90
28010;DHT22;15334;49.494;8.410;2023-09-30T09:17:11;18.80;99.90
28010;DHT22;15334;49.494;8.410;2023-09-30T09:19:40;19.00;99.90
28010;DHT22;15334;49.494;8.410;2023-09-30T09:22:09;19.20;99.90
28010;DHT22;15334;49.494;8.410;2023-09-30T09:24:37;19.20;99.90
28010;DHT22;15334;49.494;8.410;2023-09-30T09:27:10;19.40;99.90
28010;DHT22;15334;49.494;8.410;2023-09-30T09:29:39;19.60;99.90
28010;DHT22;15334;49.494;8.410;2023-09-30T09:32:12;19.50;99.90
28010;DHT22;15334;49.494;8.410;2023-09-30T09:34:42;19.50;99.90
28010;DHT22;15334;49.494;8.410;2023-09-30T09:37:15;19.50;99.90
28010;DHT22;15334;49.494;8.410;2023-09-30T09:39:51;19.50;99.90
28010;DHT22;15334;49.494;8.410;2023-09-30T09:42:27;19.50;99.90
28010;DHT22;15334;49.494;8.410;2023-09-30T09:44:56;19.60;99.90
28010;DHT22;15334;49.494;8.410;2023-09-30T09:47:24;19.80;99.90
28010;DHT22;15334;49.494;8.410;2023-09-30T09:49:57;19.80;99.90
28010;DHT22;15334;49.494;8.410;2023-09-30T09:52:26;19.80;99.90
28010;DHT22;15334;49.494;8.410;2023-09-30T09:54:55;19.80;99.90
28010;DHT22;15334;49.494;8.410;2023-09-30T09:57:25;19.80;99.90
28010;DHT22;15334;49.494;8.410;2023-09-30T09:59:54;20.00;99.90
28010;DHT22;15334;49.494;8.410;2023-09-30T10:02:26;20.10;99.90
28010;DHT22;15334;49.494;8.410;2023-09-30T10:04:57;20.20;99.90
28010;DHT22;15334;49.494;8.410;2023-09-30T10:07:28;20.20;99.90
28010;DHT22;15334;49.494;8.410;2023-09-30T10:10:01;20.20;99.90
28010;DHT22;15334;49.494;8.410;2023-09-30T10:12:36;20.20;99.90
28010;DHT22;15334;49.494;8.410;2023-09-30T10:15:39;20.00;99.90
28010;DHT22;15334;49.494;8.410;2023-09-30T10:18:11;20.10;99.90
28010;DHT22;15334;49.494;8.410;2023-09-30T10:20:44;20.20;99.90
28010;DHT22;15334;49.494;8.410;2023-09-30T10:23:25;20.30;99.90
28010;DHT22;15334;49.494;8.410;2023-09-30T10:26:13;20.40;99.90
28010;DHT22;15334;49.494;8.410;2023-09-30T10:28:45;20.40;99.90
28010;DHT22;15334;49.494;8.410;2023-09-30T10:31:15;20.40;99.90
28010;DHT22;15334;49.494;8.410;2023-09-30T10:37:19;20.40;99.90
28010;DHT22;15334;49.494;8.410;2023-09-30T10:39:55;20.70;99.90
28010;DHT22;15334;49.494;8.410;2023-09-30T10:42:45;20.80;99.90
28010;DHT22;15334;49.494;8.410;2023-09-30T10:45:44;21.00;99.90
28010;DHT22;15334;49.494;8.410;2023-09-30T10:48:41;21.30;99.90
28010;DHT22;15334;49.494;8.410;2023-09-30T10:51:16;21.60;99.90
28010;DHT22;15334;49.494;8.410;2023-09-30T10:53:48;22.00;99.90
28010;DHT22;15334;49.494;8.410;2023-09-30T10:56:20;22.60;99.90
28010;DHT22;15334;49.494;8.410;2023-09-30T10:58:49;23.50;99.90
28010;DHT22;15334;49.494;8.410;2023-09-30T11:01:19;25.10;99.90
28010;DHT22;15334;49.494;8.410;2023-09-30T11:03:49;26.90;99.90
28010;DHT22;15334;49.494;8.410;2023-09-30T11:06:20;28.50;99.90
28010;DHT22;15334;49.494;8.410;2023-09-30T11:08:53;28.90;97.80
28010;DHT22;15334;49.494;8.410;2023-09-30T11:11:34;28.40;97.50
28010;DHT22;15334;49.494;8.410;2023-09-30T11:14:02;28.10;97.20
28010;DHT22;15334;49.494;8.410;2023-09-30T11:16:41;28.40;96.30
28010;DHT22;15334;49.494;8.410;2023-09-30T11:19:10;29.10;96.00
28010;DHT22;15334;49.494;8.410;2023-09-30T11:21:38;29.00;94.80
28010;DHT22;15334;49.494;8.410;2023-09-30T11:24:08;28.40;94.60
28010;DHT22;15334;49.494;8.410;2023-09-30T11:26:37;27.80;95.40
28010;DHT22;15334;49.494;8.410;2023-09-30T11:29:07;27.80;95.90
28010;DHT22;15334;49.494;8.410;2023-09-30T11:31:39;28.50;95.20
28010;DHT22;15334;49.494;8.410;2023-09-30T11:34:09;29.00;94.10
28010;DHT22;15334;49.494;8.410;2023-09-30T11:36:39;29.30;93.70
28010;DHT22;15334;49.494;8.410;2023-09-30T11:39:20;29.40;93.30
28010;DHT22;15334;49.494;8.410;2023-09-30T11:41:49;29.90;92.60
28010;DHT22;15334;49.494;8.410;2023-09-30T11:44:17;29.60;93.20
28010;DHT22;15334;49.494;8.410;2023-09-30T11:46:50;30.20;91.70
28010;DHT22;15334;49.494;8.410;2023-09-30T11:49:28;30.20;91.70
28010;DHT22;15334;49.494;8.410;2023-09-30T11:51:57;31.50;90.80
28010;DHT22;15334;49.494;8.410;2023-09-30T11:54:32;32.50;86.90
28010;DHT22;15334;49.494;8.410;2023-09-30T11:57:01;31.80;87.00
28010;DHT22;15334;49.494;8.410;2023-09-30T11:59:30;31.60;87.10
28010;DHT22;15334;49.494;8.410;2023-09-30T12:01:58;31.90;85.80
28010;DHT22;15334;49.494;8.410;2023-09-30T12:04:29;32.10;84.60
28010;DHT22;15334;49.494;8.410;2023-09-30T12:06:58;32.30;83.40
28010;DHT22;15334;49.494;8.410;2023-09-30T12:09:26;32.50;83.30
28010;DHT22;15334;49.494;8.410;2023-09-30T12:11:56;30.90;85.10
28010;DHT22;15334;49.494;8.410;2023-09-30T12:14:26;29.80;88.10
28010;DHT22;15334;49.494;8.410;2023-09-30T12:16:58;29.20;90.50
28010;DHT22;15334;49.494;8.410;2023-09-30T12:19:28;29.30;90.40
28010;DHT22;15334;49.494;8.410;2023-09-30T12:21:57;29.80;87.70
28010;DHT22;15334;49.494;8.410;2023-09-30T12:24:25;29.70;87.20
28010;DHT22;15334;49.494;8.410;2023-09-30T12:26:55;29.50;87.70
28010;DHT22;15334;49.494;8.410;2023-09-30T12:29:24;30.20;86.70
28010;DHT22;15334;49.494;8.410;2023-09-30T12:31:52;30.90;84.90
28010;DHT22;15334;49.494;8.410;2023-09-30T12:34:22;31.10;83.30
28010;DHT22;15334;49.494;8.410;2023-09-30T12:36:53;31.20;82.70
28010;DHT22;15334;49.494;8.410;2023-09-30T12:39:22;30.90;82.90
28010;DHT22;15334;49.494;8.410;2023-09-30T12:41:55;31.40;83.50
28010;DHT22;15334;49.494;8.410;2023-09-30T12:44:23;31.70;90.60
28010;DHT22;15334;49.494;8.410;2023-09-30T12:46:51;31.80;80.80
28010;DHT22;15334;49.494;8.410;2023-09-30T12:49:19;32.40;91.80
28010;DHT22;15334;49.494;8.410;2023-09-30T12:51:47;32.40;79.20
28010;DHT22;15334;49.494;8.410;2023-09-30T12:54:15;33.20;77.20
28010;DHT22;15334;49.494;8.410;2023-09-30T12:56:45;34.00;76.50
28010;DHT22;15334;49.494;8.410;2023-09-30T12:59:16;34.20;74.20
28010;DHT22;15334;49.494;8.410;2023-09-30T13:01:44;33.30;75.50
28010;DHT22;15334;49.494;8.410;2023-09-30T13:04:16;31.90;77.80
28010;DHT22;15334;49.494;8.410;2023-09-30T13:06:45;30.50;80.30
28010;DHT22;15334;49.494;8.410;2023-09-30T13:09:15;29.40;82.20
28010;DHT22;15334;49.494;8.410;2023-09-30T13:11:46;28.10;84.90
28010;DHT22;15334;49.494;8.410;2023-09-30T13:14:15;26.80;87.70
28010;DHT22;15334;49.494;8.410;2023-09-30T13:16:44;25.80;90.00
28010;DHT22;15334;49.494;8.410;2023-09-30T13:19:12;25.00;90.90
28010;DHT22;15334;49.494;8.410;2023-09-30T13:21:42;24.40;92.00
28010;DHT22;15334;49.494;8.410;2023-09-30T13:24:11;24.30;92.10
28010;DHT22;15334;49.494;8.410;2023-09-30T13:26:39;24.20;92.40
28010;DHT22;15334;49.494;8.410;2023-09-30T13:29:07;24.20;93.30
28010;DHT22;15334;49.494;8.410;2023-09-30T13:31:38;24.10;93.70
28010;DHT22;15334;49.494;8.410;2023-09-30T13:34:06;23.90;93.20
28010;DHT22;15334;49.494;8.410;2023-09-30T13:36:34;23.60;93.30
28010;DHT22;15334;49.494;8.410;2023-09-30T13:39:02;23.60;93.90
28010;DHT22;15334;49.494;8.410;2023-09-30T13:41:34;23.70;94.80
28010;DHT22;15334;49.494;8.410;2023-09-30T13:44:02;23.80;94.00
28010;DHT22;15334;49.494;8.410;2023-09-30T13:46:30;23.80;93.50
28010;DHT22;15334;49.494;8.410;2023-09-30T13:49:00;23.80;93.50
28010;DHT22;15334;49.494;8.410;2023-09-30T13:51:28;23.80;93.70
28010;DHT22;15334;49.494;8.410;2023-09-30T13:53:56;23.60;93.60
28010;DHT22;15334;49.494;8.410;2023-09-30T13:56:24;23.50;94.00
28010;DHT22;15334;49.494;8.410;2023-09-30T13:58:52;23.40;94.30
28010;DHT22;15334;49.494;8.410;2023-09-30T14:01:20;23.40;94.40
28010;DHT22;15334;49.494;8.410;2023-09-30T14:03:48;23.40;94.10
28010;DHT22;15334;49.494;8.410;2023-09-30T14:06:17;23.40;94.30
28010;DHT22;15334;49.494;8.410;2023-09-30T14:08:45;23.20;94.30
28010;DHT22;15334;49.494;8.410;2023-09-30T14:11:14;22.90;94.20
28010;DHT22;15334;49.494;8.410;2023-09-30T14:13:42;22.70;94.70
28010;DHT22;15334;49.494;8.410;2023-09-30T14:16:10;22.60;94.80
28010;DHT22;15334;49.494;8.410;2023-09-30T14:18:38;22.60;95.10
28010;DHT22;15334;49.494;8.410;2023-09-30T14:21:06;22.60;95.30
28010;DHT22;15334;49.494;8.410;2023-09-30T14:23:35;22.80;96.00
28010;DHT22;15334;49.494;8.410;2023-09-30T14:26:06;22.80;94.50
28010;DHT22;15334;49.494;8.410;2023-09-30T14:28:38;22.40;95.00
28010;DHT22;15334;49.494;8.410;2023-09-30T14:31:06;22.40;95.40
28010;DHT22;15334;49.494;8.410;2023-09-30T14:33:34;22.30;95.20
28010;DHT22;15334;49.494;8.410;2023-09-30T14:36:03;22.10;95.50
28010;DHT22;15334;49.494;8.410;2023-09-30T14:38:33;22.20;95.70
28010;DHT22;15334;49.494;8.410;2023-09-30T14:41:06;22.20;95.50
28010;DHT22;15334;49.494;8.410;2023-09-30T14:43:34;22.20;95.50
28010;DHT22;15334;49.494;8.410;2023-09-30T14:46:02;22.10;96.20
28010;DHT22;15334;49.494;8.410;2023-09-30T14:48:31;22.20;95.70
28010;DHT22;15334;49.494;8.410;2023-09-30T14:50:59;22.20;96.50
28010;DHT22;15334;49.494;8.410;2023-09-30T14:53:27;22.20;96.30
28010;DHT22;15334;49.494;8.410;2023-09-30T14:55:56;22.30;95.60
28010;DHT22;15334;49.494;8.410;2023-09-30T14:58:25;22.40;95.80
28010;DHT22;15334;49.494;8.410;2023-09-30T15:00:53;22.40;95.70
28010;DHT22;15334;49.494;8.410;2023-09-30T15:03:21;22.40;95.60
28010;DHT22;15334;49.494;8.410;2023-09-30T15:05:57;22.40;95.20
28010;DHT22;15334;49.494;8.410;2023-09-30T15:08:26;22.50;96.10
28010;DHT22;15334;49.494;8.410;2023-09-30T15:10:54;22.40;97.10
28010;DHT22;15334;49.494;8.410;2023-09-30T15:13:23;22.30;95.80
28010;DHT22;15334;49.494;8.410;2023-09-30T15:15:52;22.20;96.30
28010;DHT22;15334;49.494;8.410;2023-09-30T15:18:20;22.10;95.90
28010;DHT22;15334;49.494;8.410;2023-09-30T15:20:49;22.20;96.20
28010;DHT22;15334;49.494;8.410;2023-09-30T15:23:17;22.20;95.90
28010;DHT22;15334;49.494;8.410;2023-09-30T15:25:46;22.20;95.60
28010;DHT22;15334;49.494;8.410;2023-09-30T15:28:14;22.20;96.80
28010;DHT22;15334;49.494;8.410;2023-09-30T15:30:42;22.20;96.20
28010;DHT22;15334;49.494;8.410;2023-09-30T15:33:11;22.10;96.90
28010;DHT22;15334;49.494;8.410;2023-09-30T15:35:39;22.10;97.30
28010;DHT22;15334;49.494;8.410;2023-09-30T15:38:07;22.10;99.00
28010;DHT22;15334;49.494;8.410;2023-09-30T15:40:51;22.10;98.70
28010;DHT22;15334;49.494;8.410;2023-09-30T15:43:19;22.10;98.80
28010;DHT22;15334;49.494;8.410;2023-09-30T15:45:48;22.00;96.70
28010;DHT22;15334;49.494;8.410;2023-09-30T15:48:17;21.90;98.70
28010;DHT22;15334;49.494;8.410;2023-09-30T15:50:45;21.90;98.60